Lenoir, NC

2:42 PM EDT on October 21, 2014 (GMT -0400)
KG4YVW Long View Township | Change Station
CLOSE
Current Station
Personal Weather Station
Location: Hickory, NC
Elevation: 1136 ft
Nearby Weather Stations

Elev 1136 ft 35.73 °N, 81.38 °W | Updated 2 seconds ago

Clear
Clear
72.1 °F
Feels Like 74 °F
N
2.7
Wind Variable Wind from NW
Gusts 6.3 mph

Today
High -- | Low -- °F
--% Chance of Precip.
Yesterday
High -- | Low -- °F
Precip. -- in
7:38 AM 6:42 PM
Waning Crescent, 5% visible
Pressure 29.95 in
Visibility 10.0 miles
Clouds Scattered Clouds 6500 ft
Scattered Clouds 7500 ft
Heat Index 74 °F
Dew Point 23 °F
Humidity 16%
Rainfall 0.00 in
Snow Depth Not available.
UV 0.0 out of 12
Pollen 3.00 out of 12
Ozone Good
PM2.5 Good
Flu Activity Sporadic
METAR KMRN 211835Z AUTO 27009G14KT 10SM SCT065 SCT075 21/05 A2995 RMK AO2 T02130046

More Conditions Fewer Conditions

Pressure 29.95 in
Visibility 10.0 miles
Clouds Scattered Clouds 6500 ft
Scattered Clouds 7500 ft
Heat Index 74 °F
Dew Point 23 °F
Humidity 16%
Rainfall 0.00 in
Snow Depth Not available.
UV 0.0 out of 12
Pollen 3.00 out of 12
Ozone Good
PM2.5 Good
Flu Activity Sporadic
METAR KMRN 211835Z AUTO 27009G14KT 10SM SCT065 SCT075 21/05 A2995 RMK AO2 T02130046

More Conditions Fewer Conditions

10-Day Weather Forecast

Almanac

Astronomy

Oct. 21, 2014 Rise Set
Actual Time 7:38 AM EDT 6:42 PM EDT
Civil Twilight 7:12 AM EDT 7:08 PM EDT
Nautical Twilight 6:42 AM EDT 7:38 PM EDT
Astronomical Twilight 6:12 AM EDT 8:08 PM EDT
Moon 5:25 AM EDT 5:32 PM EDT
Length of Visible Light 11h 56m
Length of Day
11h 04m
Tomorrow will be 2m 8s shorter.
Waning Crescent, 5% of the Moon is Illuminated
Today
Waning Crescent
Oct 23
New
Oct 30
First Quarter
Nov 6
Full
Nov 14
Last Quarter

Today's Extremes

State Highs State Lows

Community

WunderPhotos

Upload Photos

1,763,742 photos uploaded!

Nearby

Air Quality

  Air Quality AQ Index Pollutant
Yesterday Good
OZONE
Yesterday Good
PM2.5
Current Good
OZONE
Current Good
PM2.5
Tuesday Good
OZONE
Tuesday Good
PM2.5
Wednesday Good
OZONE
Wednesday Good
PM2.5
Thursday Good
PM2.5
Thursday Good
OZONE
Friday Good
PM2.5
Friday Good
OZONE

Snow Depth

Station Depth Elevation
No new snow has been reported.

Earthquake Activity

City Distance Mag. Time & Date
No recent earthquake activity has been reported nearby.
Minimum magnitude displayed is 2.5.

Coastal Water Temperatures

Place Temperature
No Stations Reporting

Nearby Weather Stations